logo
Search for airport 
image banner adimage banner adimage banner ad
image banner ad

EYVK - Kyviskes

Located in Vilnius, Lithuania

ICAO - EYVK, IATA -

Data provided by Airmate  

General information

Coordinates: N54°40'5" E25°30'57"
Elevation is 535 feet MSL.
Magnetic variation is 7° East
View others Airports in Vilnius County

Operational data

Special qualification required
Current time UTC:
Current local time:
Weather at : EYVI - Vilnius/International ( 15 km )
METAR: EYVI 282050Z VRB01KT CAVOK 18/10 Q1018 NOSIG
TAF: TAF EYVI 281701Z 2818/2918 VRB05KT 9000 NSC TEMPO 2818/2820 SCT040CB TEMPO 2909/2912 BKN040CB TEMPO 2912/2918 VRB20KT TSRA BKN030CB
View NOTAMs / SUP AIP / TFR affecting this airport [VIEW]
Communications frequencies: [VIEW]

Runways:

RWY identifierQFULength (ft)Width (ft)SurfaceLDA (ft)
15161°2133131GRASS
33341°2133131GRASS
13L177275CONC+ASPH
31R177275CONC+ASPH
13R110698GRASS
31L110698GRASS
13140°00UNK
31320°00UNK

Airport contact information

Address: Vilnius Lithuania

Other aviation service providers

Aviation club (not for profit)

Vilniaus Dariaus Ir Girėno Aeroklubas

Vilniaus Dariaus Ir Girėno Aeroklubas
aerobaticzone@gmail.com+37069436465
+37069436465

Satellite view of EYVK